createdAt,value
2019-05-03T00:01:36.459Z,88.79
2019-05-03T00:04:11.914Z,88.52
2019-05-03T00:06:44.387Z,89.05
2019-05-03T00:09:17.487Z,89.13
2019-05-03T00:11:50.452Z,88.70
2019-05-03T00:14:25.691Z,88.70
2019-05-03T00:16:58.643Z,87.98
2019-05-03T00:19:32.765Z,87.85
2019-05-03T00:22:06.010Z,87.53
2019-05-03T00:24:39.086Z,87.45
2019-05-03T00:27:12.483Z,87.52
2019-05-03T00:29:46.086Z,87.70
2019-05-03T00:32:19.088Z,87.53
2019-05-03T00:34:52.483Z,87.53
2019-05-03T00:37:25.485Z,87.90
2019-05-03T00:39:58.533Z,87.90
2019-05-03T00:42:31.809Z,87.25
2019-05-03T00:45:07.116Z,87.08
2019-05-03T00:47:42.029Z,87.48
2019-05-03T00:50:15.366Z,87.33
2019-05-03T00:52:48.414Z,87.07
2019-05-03T00:55:22.034Z,85.69
2019-05-03T00:57:55.243Z,85.75
2019-05-03T01:00:28.650Z,86.47
2019-05-03T01:03:02.214Z,86.03
2019-05-03T01:05:35.313Z,85.84
2019-05-03T01:08:08.411Z,86.26
2019-05-03T01:10:42.107Z,86.26
2019-05-03T01:13:15.230Z,86.31
2019-05-03T01:15:48.570Z,87.07
2019-05-03T01:18:21.893Z,87.43
2019-05-03T01:20:55.381Z,87.71
2019-05-03T01:23:28.358Z,87.50
2019-05-03T01:26:02.448Z,87.50
2019-05-03T01:28:35.808Z,87.36
2019-05-03T01:31:09.058Z,87.36
2019-05-03T01:33:42.619Z,88.08
2019-05-03T01:36:15.753Z,87.56
2019-05-03T01:38:48.830Z,88.03
2019-05-03T01:41:22.364Z,88.72
2019-05-03T01:43:55.322Z,89.06
2019-05-03T01:46:28.601Z,89.15
2019-05-03T01:49:01.694Z,89.07
2019-05-03T01:51:34.714Z,89.03
2019-05-03T01:54:07.864Z,88.56
2019-05-03T01:56:49.982Z,89.24
2019-05-03T01:59:15.640Z,90.06
2019-05-03T02:01:48.706Z,90.45
2019-05-03T02:04:21.764Z,90.45
2019-05-03T02:06:54.752Z,90.44
2019-05-03T02:09:27.772Z,90.44
2019-05-03T02:12:02.131Z,91.04
2019-05-03T02:14:35.200Z,90.49
2019-05-03T02:17:08.182Z,90.49
2019-05-03T02:19:42.135Z,90.90
2019-05-03T02:22:15.340Z,90.54
2019-05-03T02:24:48.357Z,90.54
2019-05-03T02:27:22.011Z,90.15
2019-05-03T02:29:55.076Z,89.49
2019-05-03T02:32:28.027Z,88.76
2019-05-03T02:35:02.775Z,89.21
2019-05-03T02:37:35.708Z,89.04
2019-05-03T02:40:08.984Z,89.04
2019-05-03T02:42:42.033Z,89.22
2019-05-03T02:45:15.541Z,88.93
2019-05-03T02:47:48.672Z,88.93
2019-05-03T02:50:21.716Z,89.49
2019-05-03T02:52:55.341Z,89.83
2019-05-03T02:55:28.735Z,89.83
2019-05-03T02:58:01.714Z,90.70
2019-05-03T03:01:06.811Z,90.71
2019-05-03T03:03:39.903Z,90.75
2019-05-03T03:06:15.737Z,90.96
2019-05-03T03:08:50.160Z,90.96
2019-05-03T03:11:26.112Z,92.00
2019-05-03T03:14:00.776Z,92.03
2019-05-03T03:16:36.134Z,92.03
2019-05-03T03:19:12.465Z,91.52
2019-05-03T03:21:47.075Z,91.52
2019-05-03T03:24:25.641Z,91.18
2019-05-03T03:26:58.417Z,91.26
2019-05-03T03:29:35.885Z,90.57
2019-05-03T03:32:20.374Z,90.06
2019-05-03T03:35:11.694Z,90.06
2019-05-03T03:37:41.077Z,89.97
2019-05-03T03:40:16.224Z,90.12
2019-05-03T03:42:51.511Z,90.12
2019-05-03T03:45:25.411Z,90.25
2019-05-03T03:48:01.075Z,90.46
2019-05-03T03:50:35.951Z,90.46
2019-05-03T03:53:10.873Z,90.43
2019-05-03T03:55:46.965Z,91.43
2019-05-03T03:58:22.908Z,91.54
2019-05-03T04:00:55.493Z,91.43
2019-05-03T04:03:28.681Z,91.82
2019-05-03T04:06:01.744Z,91.82
2019-05-03T04:08:36.003Z,90.59
2019-05-03T04:11:09.653Z,90.32
2019-05-03T04:13:45.224Z,90.16
2019-05-03T04:16:21.092Z,90.16
2019-05-03T04:18:55.131Z,89.63
2019-05-03T04:21:28.427Z,89.63
2019-05-03T04:24:01.527Z,89.39
2019-05-03T04:26:35.814Z,90.06
2019-05-03T04:29:09.921Z,90.06
2019-05-03T04:31:45.605Z,90.30
2019-05-03T04:34:18.021Z,90.30
2019-05-03T04:36:51.250Z,90.56
2019-05-03T04:39:25.633Z,90.91
2019-05-03T04:41:58.718Z,90.94
2019-05-03T04:44:31.802Z,90.94
2019-05-03T04:47:06.753Z,91.21
2019-05-03T04:49:39.572Z,91.21
2019-05-03T04:52:12.524Z,91.34
2019-05-03T04:54:45.503Z,91.69
2019-05-03T04:57:35.213Z,92.11
2019-05-03T04:59:55.849Z,92.17
2019-05-03T05:02:27.893Z,92.16
2019-05-03T05:05:00.800Z,92.16
2019-05-03T05:07:35.038Z,91.91
2019-05-03T05:10:08.164Z,92.11
2019-05-03T05:12:41.337Z,92.26
2019-05-03T05:15:15.653Z,92.26
2019-05-03T05:17:49.243Z,91.84
2019-05-03T05:20:22.144Z,92.25
2019-05-03T05:22:55.091Z,92.02
2019-05-03T05:25:27.960Z,91.96
2019-05-03T05:28:00.854Z,92.55
2019-05-03T05:30:35.333Z,92.55
2019-05-03T05:33:08.513Z,92.24
2019-05-03T05:35:41.409Z,92.40
2019-05-03T05:38:14.976Z,89.98
2019-05-03T05:40:48.077Z,88.69
2019-05-03T05:43:21.010Z,89.03
2019-05-03T05:45:55.642Z,89.00
2019-05-03T05:48:28.723Z,89.36
2019-05-03T05:51:01.759Z,89.23
2019-05-03T05:53:35.883Z,89.23
2019-05-03T05:56:08.967Z,88.46
2019-05-03T05:58:41.895Z,89.54
2019-05-03T06:01:14.893Z,89.70
2019-05-03T06:03:48.030Z,89.70
2019-05-03T06:06:20.959Z,88.88
2019-05-03T06:08:54.776Z,88.88
2019-05-03T06:11:27.730Z,87.89
2019-05-03T06:14:00.675Z,87.58
2019-05-03T06:16:34.858Z,85.45
2019-05-03T06:19:07.969Z,84.29
2019-05-03T06:21:40.977Z,83.75
2019-05-03T06:24:14.782Z,82.20
2019-05-03T06:26:47.825Z,80.55
2019-05-03T06:29:20.850Z,80.47
2019-05-03T06:31:55.044Z,79.54
2019-05-03T06:34:28.479Z,79.54
2019-05-03T06:37:01.376Z,77.58
2019-05-03T06:39:35.233Z,78.41
2019-05-03T06:42:09.935Z,80.14
2019-05-03T06:44:45.368Z,80.14
2019-05-03T06:47:17.866Z,79.62
2019-05-03T06:49:50.848Z,79.62
2019-05-03T06:52:27.663Z,78.97
2019-05-03T06:55:00.270Z,78.90
2019-05-03T06:57:35.314Z,79.24
2019-05-03T07:00:08.651Z,76.68
2019-05-03T07:02:41.544Z,76.68
2019-05-03T07:05:15.309Z,75.03
2019-05-03T07:07:48.361Z,74.53
2019-05-03T07:10:21.397Z,74.53
2019-05-03T07:12:54.753Z,72.53
2019-05-03T07:15:28.186Z,71.64
2019-05-03T07:18:01.052Z,69.94
2019-05-03T07:20:35.308Z,69.42
2019-05-03T07:23:08.196Z,69.53
2019-05-03T07:25:41.345Z,69.39
2019-05-03T07:28:15.036Z,68.15
2019-05-03T07:30:48.026Z,68.15
2019-05-03T07:33:20.963Z,64.45
2019-05-03T07:35:54.777Z,63.71
2019-05-03T07:38:27.734Z,61.06
2019-05-03T07:41:00.602Z,60.35
2019-05-03T07:43:35.861Z,60.16
2019-05-03T07:46:08.353Z,60.16
2019-05-03T07:48:41.230Z,58.28
2019-05-03T07:51:14.553Z,61.60
2019-05-03T07:53:47.569Z,65.19
2019-05-03T07:56:20.732Z,65.19
2019-05-03T07:59:02.205Z,67.48
2019-05-03T08:01:28.529Z,70.36
2019-05-03T08:04:01.415Z,73.74
2019-05-03T08:06:34.707Z,74.41
2019-05-03T08:09:08.144Z,70.30
2019-05-03T08:11:41.322Z,71.74
2019-05-03T08:14:17.686Z,70.92
2019-05-03T08:16:48.842Z,70.92
2019-05-03T08:19:24.492Z,68.99
2019-05-03T08:21:56.827Z,63.33
2019-05-03T08:24:29.770Z,56.69
2019-05-03T08:27:04.820Z,40.79
2019-05-03T08:29:38.555Z,38.72
2019-05-03T08:32:11.469Z,37.06
2019-05-03T08:34:45.278Z,37.06
2019-05-03T08:37:18.336Z,33.80
2019-05-03T08:39:51.777Z,35.80
2019-05-03T08:42:25.493Z,35.02
2019-05-03T08:44:58.663Z,35.02
2019-05-03T08:47:31.625Z,38.87
2019-05-03T08:50:05.635Z,41.45
2019-05-03T08:52:39.004Z,41.45
2019-05-03T08:55:12.285Z,43.93
2019-05-03T08:57:45.292Z,43.93
2019-05-03T09:00:18.348Z,49.66
2019-05-03T09:02:51.339Z,49.66
2019-05-03T09:05:25.043Z,53.05
2019-05-03T09:07:58.126Z,53.86
2019-05-03T09:10:31.426Z,55.28
2019-05-03T09:13:06.392Z,59.02
2019-05-03T09:15:39.345Z,59.02
2019-05-03T09:18:15.146Z,55.25
2019-05-03T09:20:47.319Z,44.72
2019-05-03T09:23:23.256Z,36.79
2019-05-03T09:25:55.153Z,28.73
2019-05-03T09:28:29.267Z,28.73
2019-05-03T09:31:02.215Z,29.19
2019-05-03T09:33:37.233Z,38.92
2019-05-03T09:36:10.195Z,38.92
2019-05-03T09:38:45.555Z,40.14
2019-05-03T09:41:18.053Z,40.14
2019-05-03T09:43:51.059Z,37.87
2019-05-03T09:46:32.651Z,33.98
2019-05-03T09:49:13.932Z,33.98
2019-05-03T09:51:48.681Z,34.56
2019-05-03T09:54:36.735Z,33.39
2019-05-03T09:57:30.489Z,40.11
2019-05-03T10:00:13.297Z,37.61
2019-05-03T10:02:55.349Z,37.61
2019-05-03T10:05:40.757Z,38.80
2019-05-03T10:08:29.464Z,44.70
2019-05-03T10:11:11.036Z,44.70
2019-05-03T10:13:51.414Z,43.49
2019-05-03T10:16:32.330Z,46.53
2019-05-03T10:19:16.138Z,46.35
2019-05-03T10:21:57.719Z,50.54
2019-05-03T10:24:38.793Z,52.49
2019-05-03T10:27:20.658Z,52.49
2019-05-03T10:30:09.755Z,49.16
2019-05-03T10:32:56.255Z,41.37
2019-05-03T10:35:44.995Z,46.36
2019-05-03T10:38:30.805Z,46.36
2019-05-03T10:41:27.397Z,47.68
2019-05-03T10:44:26.169Z,48.97
2019-05-03T10:49:51.912Z,50.92
2019-05-03T10:52:29.266Z,52.91
2019-05-03T10:55:10.234Z,50.67
2019-05-03T10:57:56.153Z,41.66
2019-05-03T11:00:49.675Z,38.51
2019-05-03T11:03:14.863Z,45.08
2019-05-03T11:05:50.797Z,50.83
2019-05-03T11:08:37.045Z,50.83
2019-05-03T11:11:20.668Z,52.13
2019-05-03T11:14:28.698Z,52.30
2019-05-03T11:17:14.827Z,50.64
2019-05-03T11:19:57.994Z,50.64
2019-05-03T11:22:45.254Z,43.40
2019-05-03T11:25:25.020Z,38.63
2019-05-03T11:28:25.127Z,38.63
2019-05-03T11:32:09.296Z,33.30
2019-05-03T11:34:16.837Z,33.30
2019-05-03T11:37:01.298Z,40.51
2019-05-03T11:39:38.660Z,40.51
2019-05-03T11:42:15.327Z,43.96
2019-05-03T11:44:57.365Z,50.08
2019-05-03T11:47:38.016Z,54.59
2019-05-03T11:50:22.547Z,54.97
2019-05-03T11:53:00.876Z,52.24
2019-05-03T11:55:42.728Z,52.24
2019-05-03T11:58:27.110Z,47.60
2019-05-03T12:01:13.032Z,45.58
2019-05-03T12:03:45.193Z,46.09
2019-05-03T12:06:24.783Z,43.97
2019-05-03T12:09:05.619Z,43.97
2019-05-03T12:11:38.544Z,50.26
2019-05-03T12:14:15.200Z,50.58
2019-05-03T12:19:31.244Z,45.79
2019-05-03T12:22:07.872Z,45.79
2019-05-03T12:24:46.056Z,40.82
2019-05-03T12:27:22.065Z,38.71
2019-05-03T12:29:57.440Z,39.21
2019-05-03T12:32:34.970Z,44.99
2019-05-03T12:35:15.338Z,44.99
2019-05-03T12:37:55.586Z,47.57
2019-05-03T12:40:29.753Z,49.01
2019-05-03T12:43:09.275Z,49.01
2019-05-03T12:45:50.906Z,43.33
2019-05-03T12:48:32.464Z,38.90
2019-05-03T12:51:15.361Z,36.60
2019-05-03T12:53:59.967Z,36.87
2019-05-03T12:56:36.622Z,41.07
2019-05-03T12:59:09.577Z,41.07
2019-05-03T13:01:45.131Z,41.68
2019-05-03T13:04:17.082Z,41.61
2019-05-03T13:06:49.967Z,41.61
2019-05-03T13:09:25.094Z,42.69
2019-05-03T13:11:59.017Z,48.82
2019-05-03T13:14:32.145Z,48.82
2019-05-03T13:17:04.987Z,49.93
2019-05-03T13:19:37.809Z,52.67
2019-05-03T13:22:10.680Z,53.97
2019-05-03T13:24:45.252Z,55.88
2019-05-03T13:27:18.204Z,55.41
2019-05-03T13:29:51.066Z,56.47
2019-05-03T13:32:24.102Z,55.93
2019-05-03T13:34:56.938Z,54.60
2019-05-03T13:37:29.954Z,53.93
2019-05-03T13:40:03.213Z,54.80
2019-05-03T13:42:36.069Z,54.80
2019-05-03T13:45:09.434Z,55.72
2019-05-03T13:47:44.543Z,55.39
2019-05-03T13:50:17.008Z,55.39
2019-05-03T13:52:49.836Z,55.05
2019-05-03T13:55:24.529Z,51.90
2019-05-03T13:57:57.238Z,51.90
2019-05-03T14:00:30.171Z,53.20
2019-05-03T14:03:04.556Z,53.24
2019-05-03T14:05:37.545Z,50.60
2019-05-03T14:08:10.698Z,52.77
2019-05-03T14:10:45.451Z,54.21
2019-05-03T14:13:18.426Z,53.33
2019-05-03T14:15:51.380Z,50.91
2019-05-03T14:18:25.595Z,50.91
2019-05-03T14:21:01.658Z,51.12
2019-05-03T14:23:34.743Z,49.16
2019-05-03T14:26:07.709Z,47.93
2019-05-03T14:28:40.545Z,51.19
2019-05-03T14:31:14.494Z,53.07
2019-05-03T14:33:47.717Z,54.58
2019-05-03T14:36:20.556Z,54.58
2019-05-03T14:38:54.855Z,56.50
2019-05-03T14:41:27.937Z,56.50
2019-05-03T14:44:01.034Z,58.65
2019-05-03T14:46:36.180Z,58.65
2019-05-03T14:49:08.626Z,58.12
2019-05-03T14:51:41.484Z,60.24
2019-05-03T14:54:14.567Z,60.24
2019-05-03T14:56:47.619Z,60.87
2019-05-03T14:59:20.704Z,62.83
2019-05-03T15:01:55.183Z,62.83
2019-05-03T15:04:28.080Z,61.30
2019-05-03T15:07:01.302Z,61.30
2019-05-03T15:09:35.334Z,60.21
2019-05-03T15:12:08.300Z,61.18
2019-05-03T15:14:41.142Z,59.17
2019-05-03T15:17:14.092Z,59.17
2019-05-03T15:19:46.924Z,61.56
2019-05-03T15:22:19.799Z,62.85
2019-05-03T15:24:54.417Z,63.48
2019-05-03T15:27:27.679Z,60.88
2019-05-03T15:30:01.073Z,60.97
2019-05-03T15:32:35.385Z,60.97
2019-05-03T15:35:08.758Z,60.55
2019-05-03T15:37:41.752Z,60.55
2019-05-03T15:40:15.594Z,60.32
2019-05-03T15:42:48.634Z,61.79
2019-05-03T15:45:21.553Z,63.10
2019-05-03T15:47:54.983Z,63.94
2019-05-03T15:50:28.003Z,63.30
2019-05-03T15:53:00.857Z,64.66
2019-05-03T15:55:33.773Z,64.66
2019-05-03T15:58:06.626Z,63.17
2019-05-03T16:00:39.547Z,63.41
2019-05-03T16:03:14.419Z,62.72
2019-05-03T16:05:47.137Z,62.72
2019-05-03T16:08:20.056Z,61.19
2019-05-03T16:10:54.778Z,61.19
2019-05-03T16:13:27.748Z,61.45
2019-05-03T16:16:00.664Z,64.73
2019-05-03T16:18:35.200Z,67.77
2019-05-03T16:21:08.143Z,67.77
2019-05-03T16:23:40.998Z,69.28
2019-05-03T16:26:14.369Z,71.53
2019-05-03T16:28:47.216Z,72.16
2019-05-03T16:31:20.257Z,72.16
2019-05-03T16:33:54.942Z,73.01
2019-05-03T16:36:28.033Z,74.15
2019-05-03T16:39:00.981Z,79.80
2019-05-03T16:41:35.407Z,79.80
2019-05-03T16:44:08.469Z,81.62
2019-05-03T16:46:41.480Z,83.34
2019-05-03T16:49:15.716Z,82.81
2019-05-03T16:51:48.704Z,81.44
2019-05-03T16:54:21.861Z,80.62
2019-05-03T16:56:55.016Z,80.62
2019-05-03T16:59:27.905Z,80.33
2019-05-03T17:02:00.816Z,80.27
2019-05-03T17:04:34.556Z,80.27
2019-05-03T17:07:07.602Z,78.88
2019-05-03T17:09:40.585Z,78.88
2019-05-03T17:12:15.163Z,79.66
2019-05-03T17:14:48.234Z,80.83
2019-05-03T17:17:21.305Z,79.49
2019-05-03T17:19:55.133Z,79.49
2019-05-03T17:22:28.301Z,79.78
2019-05-03T17:25:04.266Z,80.49
2019-05-03T17:27:37.051Z,80.49
2019-05-03T17:30:10.872Z,81.11
2019-05-03T17:32:44.624Z,81.11
2019-05-03T17:35:17.859Z,79.79
2019-05-03T17:37:50.854Z,77.96
2019-05-03T17:40:23.971Z,77.51
2019-05-03T17:42:56.940Z,77.51
2019-05-03T17:45:30.267Z,78.70
2019-05-03T17:48:04.493Z,78.41
2019-05-03T17:50:37.774Z,78.33
2019-05-03T17:53:10.724Z,77.03
2019-05-03T17:55:44.563Z,77.03
2019-05-03T17:58:17.642Z,77.42
2019-05-03T18:00:51.012Z,77.17
2019-05-03T18:03:25.783Z,78.01
2019-05-03T18:05:58.762Z,78.01
2019-05-03T18:08:31.843Z,81.37
2019-05-03T18:11:05.224Z,81.37
2019-05-03T18:13:38.341Z,83.74
2019-05-03T18:16:11.654Z,83.46
2019-05-03T18:18:45.431Z,84.48
2019-05-03T18:21:18.817Z,84.85
2019-05-03T18:23:51.766Z,85.51
2019-05-03T18:26:25.065Z,86.50
2019-05-03T18:28:58.097Z,86.48
2019-05-03T18:31:31.201Z,86.73
2019-05-03T18:34:06.324Z,87.17
2019-05-03T18:36:38.903Z,87.14
2019-05-03T18:39:11.750Z,86.99
2019-05-03T18:41:45.178Z,86.71
2019-05-03T18:44:18.275Z,86.16
2019-05-03T18:46:51.161Z,85.54
2019-05-03T18:49:24.805Z,85.88
2019-05-03T18:51:57.828Z,86.59
2019-05-03T18:54:30.683Z,86.51
2019-05-03T18:57:05.080Z,86.30
2019-05-03T18:59:38.027Z,86.30
2019-05-03T19:02:11.123Z,86.51
2019-05-03T19:04:45.223Z,85.94
2019-05-03T19:07:18.644Z,85.42
2019-05-03T19:09:51.490Z,84.68
2019-05-03T19:12:26.411Z,83.93
2019-05-03T19:14:59.536Z,81.98
2019-05-03T19:17:32.456Z,82.98
2019-05-03T19:20:05.853Z,82.98
2019-05-03T19:22:38.882Z,84.15
2019-05-03T19:25:11.935Z,84.71
2019-05-03T19:27:45.365Z,85.42
2019-05-03T19:30:18.757Z,85.42
2019-05-03T19:32:51.976Z,84.52
2019-05-03T19:35:27.721Z,85.12
2019-05-03T19:37:59.941Z,86.14
2019-05-03T19:40:34.938Z,86.14
2019-05-03T19:43:07.469Z,86.02
2019-05-03T19:45:40.390Z,85.43
2019-05-03T19:48:14.755Z,85.39
2019-05-03T19:50:48.267Z,85.42
2019-05-03T19:53:21.450Z,85.42
2019-05-03T19:55:55.299Z,85.34
2019-05-03T19:58:28.413Z,85.34
2019-05-03T20:01:01.665Z,85.54
2019-05-03T20:03:35.275Z,86.06
2019-05-03T20:06:08.257Z,86.78
2019-05-03T20:08:41.163Z,86.81
2019-05-03T20:11:14.814Z,86.24
2019-05-03T20:13:48.123Z,86.24
2019-05-03T20:16:21.609Z,87.26
2019-05-03T20:18:55.554Z,87.26
2019-05-03T20:21:28.715Z,87.54
2019-05-03T20:24:02.088Z,87.54
2019-05-03T20:26:34.992Z,87.17
2019-05-03T20:29:07.897Z,86.60
2019-05-03T20:31:40.880Z,87.13
2019-05-03T20:34:15.697Z,87.52
2019-05-03T20:36:48.430Z,87.28
2019-05-03T20:39:21.389Z,87.28
2019-05-03T20:41:55.133Z,87.10
2019-05-03T20:44:28.104Z,87.43
2019-05-03T20:47:01.219Z,87.66
2019-05-03T20:49:34.766Z,87.34
2019-05-03T20:52:07.785Z,87.00
2019-05-03T20:54:40.694Z,87.34
2019-05-03T20:57:14.467Z,86.85
2019-05-03T20:59:51.679Z,86.49
2019-05-03T21:02:22.734Z,86.49
2019-05-03T21:04:55.939Z,85.58
2019-05-03T21:07:29.061Z,85.61
2019-05-03T21:10:02.059Z,84.87
2019-05-03T21:12:35.009Z,83.39
2019-05-03T21:15:08.368Z,83.39
2019-05-03T21:17:41.510Z,84.11
2019-05-03T21:20:14.817Z,83.86
2019-05-03T21:22:47.825Z,84.41
2019-05-03T21:25:20.960Z,84.41
2019-05-03T21:27:55.513Z,84.43
2019-05-03T21:30:28.627Z,84.43
2019-05-03T21:33:01.499Z,83.30
2019-05-03T21:35:41.554Z,83.00
2019-05-03T21:38:09.424Z,83.00
2019-05-03T21:40:42.727Z,83.41
2019-05-03T21:43:15.671Z,82.94
2019-05-03T21:45:48.574Z,82.94
2019-05-03T21:48:21.764Z,82.42
2019-05-03T21:50:55.418Z,82.42
2019-05-03T21:53:28.367Z,81.77
2019-05-03T21:56:01.313Z,81.56
2019-05-03T21:58:35.285Z,82.17
2019-05-03T22:01:08.367Z,82.17
2019-05-03T22:03:41.354Z,82.83
2019-05-03T22:06:15.442Z,82.60
2019-05-03T22:08:49.735Z,83.74
2019-05-03T22:11:22.766Z,84.40
2019-05-03T22:13:57.068Z,84.28
2019-05-03T22:16:30.358Z,84.80
2019-05-03T22:19:03.460Z,85.57
2019-05-03T22:21:36.936Z,85.57
2019-05-03T22:24:10.202Z,85.44
2019-05-03T22:26:45.255Z,86.05
2019-05-03T22:29:18.149Z,86.73
2019-05-03T22:31:51.085Z,86.73
2019-05-03T22:34:25.681Z,87.23
2019-05-03T22:36:59.160Z,87.48
2019-05-03T22:39:32.285Z,87.67
2019-05-03T22:42:06.479Z,87.67
2019-05-03T22:44:39.445Z,87.19
2019-05-03T22:47:14.763Z,87.19
2019-05-03T22:49:47.771Z,87.31
2019-05-03T22:52:20.766Z,87.67
2019-05-03T22:54:55.506Z,87.77
2019-05-03T22:57:28.961Z,87.29
2019-05-03T23:00:06.049Z,87.29
2019-05-03T23:02:37.010Z,87.21
2019-05-03T23:05:10.375Z,87.94
2019-05-03T23:07:44.243Z,87.88
2019-05-03T23:10:18.081Z,88.30
2019-05-03T23:12:51.054Z,88.32
2019-05-03T23:15:24.363Z,87.71
2019-05-03T23:17:57.500Z,87.64
2019-05-03T23:20:30.471Z,87.99
2019-05-03T23:23:05.264Z,87.86
2019-05-03T23:25:37.980Z,87.03
2019-05-03T23:28:10.899Z,87.16
2019-05-03T23:30:44.077Z,87.29
2019-05-03T23:33:16.994Z,87.29
2019-05-03T23:35:50.030Z,87.47
2019-05-03T23:38:24.671Z,88.17
2019-05-03T23:40:58.140Z,87.13
2019-05-03T23:43:31.048Z,87.13
2019-05-03T23:46:05.068Z,87.16
2019-05-03T23:48:38.370Z,87.16
2019-05-03T23:51:11.395Z,86.90
2019-05-03T23:53:44.774Z,87.52
2019-05-03T23:56:17.666Z,87.57
2019-05-03T23:58:50.539Z,87.61
